sensor_id;sensor_type;location;lat;lon;timestamp;P1;durP1;ratioP1;P2;durP2;ratioP2
16705;SDS011;8469;60.136;15.180;2023-10-31T00:02:12;0.10;;;0.10;;
16705;SDS011;8469;60.136;15.180;2023-10-31T00:04:41;0.20;;;0.20;;
16705;SDS011;8469;60.136;15.180;2023-10-31T00:07:08;0.10;;;0.10;;
16705;SDS011;8469;60.136;15.180;2023-10-31T00:09:35;0.30;;;0.30;;
16705;SDS011;8469;60.136;15.180;2023-10-31T00:12:04;0.10;;;0.10;;
16705;SDS011;8469;60.136;15.180;2023-10-31T00:14:32;0.10;;;0.10;;
16705;SDS011;8469;60.136;15.180;2023-10-31T00:16:59;0.10;;;0.10;;
16705;SDS011;8469;60.136;15.180;2023-10-31T00:19:27;0.20;;;0.20;;
16705;SDS011;8469;60.136;15.180;2023-10-31T00:21:54;0.10;;;0.10;;
16705;SDS011;8469;60.136;15.180;2023-10-31T00:24:21;0.10;;;0.10;;
16705;SDS011;8469;60.136;15.180;2023-10-31T00:26:49;0.15;;;0.15;;
16705;SDS011;8469;60.136;15.180;2023-10-31T00:29:16;0.20;;;0.20;;
16705;SDS011;8469;60.136;15.180;2023-10-31T00:31:43;0.20;;;0.20;;
16705;SDS011;8469;60.136;15.180;2023-10-31T00:34:11;0.10;;;0.10;;
16705;SDS011;8469;60.136;15.180;2023-10-31T00:36:38;0.10;;;0.10;;
16705;SDS011;8469;60.136;15.180;2023-10-31T00:39:05;0.10;;;0.10;;
16705;SDS011;8469;60.136;15.180;2023-10-31T00:41:33;0.47;;;0.47;;
16705;SDS011;8469;60.136;15.180;2023-10-31T00:44:00;0.30;;;0.30;;
16705;SDS011;8469;60.136;15.180;2023-10-31T00:46:27;0.10;;;0.10;;
16705;SDS011;8469;60.136;15.180;2023-10-31T00:48:54;0.20;;;0.20;;
16705;SDS011;8469;60.136;15.180;2023-10-31T00:51:22;0.15;;;0.15;;
16705;SDS011;8469;60.136;15.180;2023-10-31T00:53:49;0.20;;;0.20;;
16705;SDS011;8469;60.136;15.180;2023-10-31T00:56:16;0.10;;;0.10;;
16705;SDS011;8469;60.136;15.180;2023-10-31T00:58:44;0.10;;;0.10;;
16705;SDS011;8469;60.136;15.180;2023-10-31T01:01:11;0.20;;;0.20;;
16705;SDS011;8469;60.136;15.180;2023-10-31T01:03:38;0.20;;;0.20;;
16705;SDS011;8469;60.136;15.180;2023-10-31T01:06:06;0.10;;;0.10;;
16705;SDS011;8469;60.136;15.180;2023-10-31T01:08:34;0.10;;;0.10;;
16705;SDS011;8469;60.136;15.180;2023-10-31T01:11:02;0.10;;;0.10;;
16705;SDS011;8469;60.136;15.180;2023-10-31T01:13:29;0.20;;;0.20;;
16705;SDS011;8469;60.136;15.180;2023-10-31T01:15:56;0.20;;;0.20;;
16705;SDS011;8469;60.136;15.180;2023-10-31T01:18:24;0.10;;;0.10;;
16705;SDS011;8469;60.136;15.180;2023-10-31T01:20:52;0.10;;;0.10;;
16705;SDS011;8469;60.136;15.180;2023-10-31T01:23:19;0.15;;;0.15;;
16705;SDS011;8469;60.136;15.180;2023-10-31T01:25:46;0.20;;;0.20;;
16705;SDS011;8469;60.136;15.180;2023-10-31T01:28:15;0.20;;;0.20;;
16705;SDS011;8469;60.136;15.180;2023-10-31T01:30:42;0.10;;;0.10;;
16705;SDS011;8469;60.136;15.180;2023-10-31T01:33:09;0.20;;;0.20;;
16705;SDS011;8469;60.136;15.180;2023-10-31T01:35:37;0.20;;;0.20;;
16705;SDS011;8469;60.136;15.180;2023-10-31T01:38:04;0.20;;;0.20;;
16705;SDS011;8469;60.136;15.180;2023-10-31T01:40:31;0.05;;;0.05;;
16705;SDS011;8469;60.136;15.180;2023-10-31T01:42:59;0.08;;;0.08;;
16705;SDS011;8469;60.136;15.180;2023-10-31T01:45:26;0.13;;;0.13;;
16705;SDS011;8469;60.136;15.180;2023-10-31T01:47:53;0.20;;;0.20;;
16705;SDS011;8469;60.136;15.180;2023-10-31T01:50:21;0.60;;;0.10;;
16705;SDS011;8469;60.136;15.180;2023-10-31T01:52:48;0.10;;;0.10;;
16705;SDS011;8469;60.136;15.180;2023-10-31T01:55:16;0.10;;;0.10;;
16705;SDS011;8469;60.136;15.180;2023-10-31T01:57:48;0.20;;;0.20;;
16705;SDS011;8469;60.136;15.180;2023-10-31T02:00:12;0.30;;;0.30;;
16705;SDS011;8469;60.136;15.180;2023-10-31T02:02:40;0.10;;;0.10;;
16705;SDS011;8469;60.136;15.180;2023-10-31T02:05:09;0.10;;;0.10;;
16705;SDS011;8469;60.136;15.180;2023-10-31T02:07:37;0.10;;;0.10;;
16705;SDS011;8469;60.136;15.180;2023-10-31T02:10:04;0.20;;;0.20;;
16705;SDS011;8469;60.136;15.180;2023-10-31T02:12:35;0.20;;;0.20;;
16705;SDS011;8469;60.136;15.180;2023-10-31T02:15:02;0.10;;;0.10;;
16705;SDS011;8469;60.136;15.180;2023-10-31T02:17:31;0.10;;;0.10;;
16705;SDS011;8469;60.136;15.180;2023-10-31T02:19:59;0.15;;;0.15;;
16705;SDS011;8469;60.136;15.180;2023-10-31T02:22:26;0.20;;;0.20;;
16705;SDS011;8469;60.136;15.180;2023-10-31T02:24:53;0.10;;;0.10;;
16705;SDS011;8469;60.136;15.180;2023-10-31T02:27:20;0.10;;;0.10;;
16705;SDS011;8469;60.136;15.180;2023-10-31T02:29:48;0.10;;;0.10;;
16705;SDS011;8469;60.136;15.180;2023-10-31T02:32:15;0.10;;;0.10;;
16705;SDS011;8469;60.136;15.180;2023-10-31T02:34:44;1.40;;;0.30;;
16705;SDS011;8469;60.136;15.180;2023-10-31T02:37:11;0.10;;;0.10;;
16705;SDS011;8469;60.136;15.180;2023-10-31T02:39:38;0.10;;;0.10;;
16705;SDS011;8469;60.136;15.180;2023-10-31T02:42:06;0.10;;;0.10;;
16705;SDS011;8469;60.136;15.180;2023-10-31T02:44:33;0.20;;;0.20;;
16705;SDS011;8469;60.136;15.180;2023-10-31T02:47:00;0.10;;;0.10;;
16705;SDS011;8469;60.136;15.180;2023-10-31T02:49:28;0.10;;;0.10;;
16705;SDS011;8469;60.136;15.180;2023-10-31T02:51:55;0.10;;;0.10;;
16705;SDS011;8469;60.136;15.180;2023-10-31T02:54:23;0.10;;;0.10;;
16705;SDS011;8469;60.136;15.180;2023-10-31T02:56:50;0.20;;;0.20;;
16705;SDS011;8469;60.136;15.180;2023-10-31T02:59:17;0.13;;;0.10;;
16705;SDS011;8469;60.136;15.180;2023-10-31T03:01:45;0.90;;;0.10;;
16705;SDS011;8469;60.136;15.180;2023-10-31T03:04:12;0.20;;;0.20;;
16705;SDS011;8469;60.136;15.180;2023-10-31T03:06:39;0.30;;;0.30;;
16705;SDS011;8469;60.136;15.180;2023-10-31T03:09:07;0.10;;;0.10;;
16705;SDS011;8469;60.136;15.180;2023-10-31T03:11:34;0.20;;;0.20;;
16705;SDS011;8469;60.136;15.180;2023-10-31T03:14:02;0.20;;;0.20;;
16705;SDS011;8469;60.136;15.180;2023-10-31T03:16:29;0.20;;;0.20;;
16705;SDS011;8469;60.136;15.180;2023-10-31T03:18:56;0.20;;;0.20;;
16705;SDS011;8469;60.136;15.180;2023-10-31T03:21:23;0.20;;;0.20;;
16705;SDS011;8469;60.136;15.180;2023-10-31T03:23:51;0.13;;;0.13;;
16705;SDS011;8469;60.136;15.180;2023-10-31T03:26:22;0.10;;;0.10;;
16705;SDS011;8469;60.136;15.180;2023-10-31T03:28:49;0.20;;;0.20;;
16705;SDS011;8469;60.136;15.180;2023-10-31T03:31:16;0.10;;;0.10;;
16705;SDS011;8469;60.136;15.180;2023-10-31T03:33:44;0.20;;;0.20;;
16705;SDS011;8469;60.136;15.180;2023-10-31T03:36:11;0.20;;;0.20;;
16705;SDS011;8469;60.136;15.180;2023-10-31T03:38:38;0.20;;;0.20;;
16705;SDS011;8469;60.136;15.180;2023-10-31T03:41:06;0.30;;;0.30;;
16705;SDS011;8469;60.136;15.180;2023-10-31T03:43:33;0.10;;;0.10;;
16705;SDS011;8469;60.136;15.180;2023-10-31T03:46:00;0.40;;;0.40;;
16705;SDS011;8469;60.136;15.180;2023-10-31T03:48:28;0.13;;;0.13;;
16705;SDS011;8469;60.136;15.180;2023-10-31T03:50:55;0.20;;;0.20;;
16705;SDS011;8469;60.136;15.180;2023-10-31T03:53:23;0.10;;;0.10;;
16705;SDS011;8469;60.136;15.180;2023-10-31T03:55:50;0.50;;;0.10;;
16705;SDS011;8469;60.136;15.180;2023-10-31T03:58:17;0.20;;;0.20;;
16705;SDS011;8469;60.136;15.180;2023-10-31T04:00:44;0.25;;;0.25;;
16705;SDS011;8469;60.136;15.180;2023-10-31T04:03:12;0.60;;;0.20;;
16705;SDS011;8469;60.136;15.180;2023-10-31T04:05:39;0.10;;;0.10;;
16705;SDS011;8469;60.136;15.180;2023-10-31T04:08:06;0.20;;;0.20;;
16705;SDS011;8469;60.136;15.180;2023-10-31T04:10:34;0.20;;;0.20;;
16705;SDS011;8469;60.136;15.180;2023-10-31T04:13:01;0.20;;;0.20;;
16705;SDS011;8469;60.136;15.180;2023-10-31T04:15:29;0.20;;;0.20;;
16705;SDS011;8469;60.136;15.180;2023-10-31T04:17:56;0.20;;;0.20;;
16705;SDS011;8469;60.136;15.180;2023-10-31T04:20:23;0.25;;;0.20;;
16705;SDS011;8469;60.136;15.180;2023-10-31T04:22:51;0.10;;;0.10;;
16705;SDS011;8469;60.136;15.180;2023-10-31T04:25:18;0.20;;;0.20;;
16705;SDS011;8469;60.136;15.180;2023-10-31T04:27:45;0.20;;;0.20;;
16705;SDS011;8469;60.136;15.180;2023-10-31T04:30:12;0.10;;;0.10;;
16705;SDS011;8469;60.136;15.180;2023-10-31T04:32:40;0.10;;;0.10;;
16705;SDS011;8469;60.136;15.180;2023-10-31T04:35:07;0.20;;;0.20;;
16705;SDS011;8469;60.136;15.180;2023-10-31T04:37:34;0.20;;;0.20;;
16705;SDS011;8469;60.136;15.180;2023-10-31T04:40:02;0.20;;;0.20;;
16705;SDS011;8469;60.136;15.180;2023-10-31T04:42:37;0.10;;;0.10;;
16705;SDS011;8469;60.136;15.180;2023-10-31T04:45:02;0.10;;;0.10;;
16705;SDS011;8469;60.136;15.180;2023-10-31T04:47:30;0.30;;;0.30;;
16705;SDS011;8469;60.136;15.180;2023-10-31T04:49:57;0.37;;;0.37;;
16705;SDS011;8469;60.136;15.180;2023-10-31T04:52:24;0.10;;;0.10;;
16705;SDS011;8469;60.136;15.180;2023-10-31T04:54:52;0.20;;;0.20;;
16705;SDS011;8469;60.136;15.180;2023-10-31T04:57:20;0.30;;;0.30;;
16705;SDS011;8469;60.136;15.180;2023-10-31T04:59:48;0.30;;;0.30;;
16705;SDS011;8469;60.136;15.180;2023-10-31T05:02:15;0.20;;;0.20;;
16705;SDS011;8469;60.136;15.180;2023-10-31T05:04:43;0.20;;;0.20;;
16705;SDS011;8469;60.136;15.180;2023-10-31T05:07:10;0.25;;;0.25;;
16705;SDS011;8469;60.136;15.180;2023-10-31T05:09:40;0.68;;;0.68;;
16705;SDS011;8469;60.136;15.180;2023-10-31T05:12:08;0.40;;;0.40;;
16705;SDS011;8469;60.136;15.180;2023-10-31T05:14:35;0.20;;;0.20;;
16705;SDS011;8469;60.136;15.180;2023-10-31T05:17:03;0.10;;;0.10;;
16705;SDS011;8469;60.136;15.180;2023-10-31T05:19:30;0.20;;;0.20;;
16705;SDS011;8469;60.136;15.180;2023-10-31T05:21:57;0.30;;;0.30;;
16705;SDS011;8469;60.136;15.180;2023-10-31T05:24:25;0.30;;;0.30;;
16705;SDS011;8469;60.136;15.180;2023-10-31T05:26:53;0.20;;;0.20;;
16705;SDS011;8469;60.136;15.180;2023-10-31T05:29:20;0.20;;;0.20;;
16705;SDS011;8469;60.136;15.180;2023-10-31T05:31:47;0.60;;;0.20;;
16705;SDS011;8469;60.136;15.180;2023-10-31T05:34:15;0.30;;;0.30;;
16705;SDS011;8469;60.136;15.180;2023-10-31T05:36:42;1.40;;;0.30;;
16705;SDS011;8469;60.136;15.180;2023-10-31T05:39:10;0.20;;;0.20;;
16705;SDS011;8469;60.136;15.180;2023-10-31T05:41:37;0.37;;;0.37;;
16705;SDS011;8469;60.136;15.180;2023-10-31T05:44:04;0.23;;;0.23;;
16705;SDS011;8469;60.136;15.180;2023-10-31T05:46:36;0.30;;;0.30;;
16705;SDS011;8469;60.136;15.180;2023-10-31T05:49:00;0.50;;;0.30;;
16705;SDS011;8469;60.136;15.180;2023-10-31T05:51:28;0.20;;;0.20;;
16705;SDS011;8469;60.136;15.180;2023-10-31T05:53:56;0.20;;;0.20;;
16705;SDS011;8469;60.136;15.180;2023-10-31T05:56:23;0.23;;;0.23;;
16705;SDS011;8469;60.136;15.180;2023-10-31T05:58:51;0.10;;;0.10;;
16705;SDS011;8469;60.136;15.180;2023-10-31T06:01:18;0.20;;;0.20;;
16705;SDS011;8469;60.136;15.180;2023-10-31T06:03:45;0.57;;;0.57;;
16705;SDS011;8469;60.136;15.180;2023-10-31T06:06:13;0.20;;;0.20;;
16705;SDS011;8469;60.136;15.180;2023-10-31T06:08:41;0.40;;;0.40;;
16705;SDS011;8469;60.136;15.180;2023-10-31T06:11:08;0.17;;;0.17;;
16705;SDS011;8469;60.136;15.180;2023-10-31T06:13:37;0.75;;;0.35;;
16705;SDS011;8469;60.136;15.180;2023-10-31T06:16:05;0.30;;;0.30;;
16705;SDS011;8469;60.136;15.180;2023-10-31T06:18:32;0.20;;;0.20;;
16705;SDS011;8469;60.136;15.180;2023-10-31T06:21:00;0.40;;;0.40;;
16705;SDS011;8469;60.136;15.180;2023-10-31T06:23:27;0.70;;;0.70;;
16705;SDS011;8469;60.136;15.180;2023-10-31T06:25:54;0.50;;;0.50;;
16705;SDS011;8469;60.136;15.180;2023-10-31T06:28:22;0.30;;;0.30;;
16705;SDS011;8469;60.136;15.180;2023-10-31T06:30:50;0.20;;;0.20;;
16705;SDS011;8469;60.136;15.180;2023-10-31T06:33:17;0.40;;;0.35;;
16705;SDS011;8469;60.136;15.180;2023-10-31T06:35:44;0.70;;;0.70;;
16705;SDS011;8469;60.136;15.180;2023-10-31T06:38:12;0.40;;;0.40;;
16705;SDS011;8469;60.136;15.180;2023-10-31T06:40:39;0.40;;;0.40;;
16705;SDS011;8469;60.136;15.180;2023-10-31T06:43:07;0.40;;;0.40;;
16705;SDS011;8469;60.136;15.180;2023-10-31T06:45:34;0.60;;;0.60;;
16705;SDS011;8469;60.136;15.180;2023-10-31T06:48:01;0.30;;;0.30;;
16705;SDS011;8469;60.136;15.180;2023-10-31T06:50:29;0.20;;;0.20;;
16705;SDS011;8469;60.136;15.180;2023-10-31T06:53:06;0.40;;;0.40;;
16705;SDS011;8469;60.136;15.180;2023-10-31T06:55:34;0.37;;;0.37;;
16705;SDS011;8469;60.136;15.180;2023-10-31T06:58:01;0.20;;;0.20;;
16705;SDS011;8469;60.136;15.180;2023-10-31T07:00:28;0.28;;;0.28;;
16705;SDS011;8469;60.136;15.180;2023-10-31T07:02:56;0.20;;;0.20;;
16705;SDS011;8469;60.136;15.180;2023-10-31T07:05:24;0.20;;;0.20;;
16705;SDS011;8469;60.136;15.180;2023-10-31T07:07:52;0.20;;;0.20;;
16705;SDS011;8469;60.136;15.180;2023-10-31T07:10:19;0.40;;;0.40;;
16705;SDS011;8469;60.136;15.180;2023-10-31T07:12:48;0.37;;;0.37;;
16705;SDS011;8469;60.136;15.180;2023-10-31T07:15:15;0.13;;;0.13;;
16705;SDS011;8469;60.136;15.180;2023-10-31T07:17:43;0.90;;;0.30;;
16705;SDS011;8469;60.136;15.180;2023-10-31T07:20:10;0.70;;;0.70;;
16705;SDS011;8469;60.136;15.180;2023-10-31T07:22:37;0.23;;;0.23;;
16705;SDS011;8469;60.136;15.180;2023-10-31T07:25:06;0.30;;;0.30;;
16705;SDS011;8469;60.136;15.180;2023-10-31T07:27:34;0.80;;;0.80;;
16705;SDS011;8469;60.136;15.180;2023-10-31T07:30:02;0.80;;;0.80;;
16705;SDS011;8469;60.136;15.180;2023-10-31T07:32:30;0.68;;;0.68;;
16705;SDS011;8469;60.136;15.180;2023-10-31T07:34:57;0.40;;;0.40;;
16705;SDS011;8469;60.136;15.180;2023-10-31T07:37:25;0.20;;;0.20;;
16705;SDS011;8469;60.136;15.180;2023-10-31T07:39:52;0.40;;;0.40;;
16705;SDS011;8469;60.136;15.180;2023-10-31T07:42:19;0.40;;;0.40;;
16705;SDS011;8469;60.136;15.180;2023-10-31T07:44:47;0.20;;;0.20;;
16705;SDS011;8469;60.136;15.180;2023-10-31T07:47:15;1.10;;;0.23;;
16705;SDS011;8469;60.136;15.180;2023-10-31T07:49:43;0.80;;;0.80;;
16705;SDS011;8469;60.136;15.180;2023-10-31T07:52:11;0.35;;;0.35;;
16705;SDS011;8469;60.136;15.180;2023-10-31T07:54:41;0.40;;;0.40;;
16705;SDS011;8469;60.136;15.180;2023-10-31T07:57:09;0.40;;;0.40;;
16705;SDS011;8469;60.136;15.180;2023-10-31T07:59:37;0.50;;;0.50;;
16705;SDS011;8469;60.136;15.180;2023-10-31T08:02:04;0.50;;;0.50;;
16705;SDS011;8469;60.136;15.180;2023-10-31T08:04:31;0.40;;;0.40;;
16705;SDS011;8469;60.136;15.180;2023-10-31T08:06:58;0.40;;;0.40;;
16705;SDS011;8469;60.136;15.180;2023-10-31T08:09:26;0.47;;;0.47;;
16705;SDS011;8469;60.136;15.180;2023-10-31T08:11:54;1.00;;;0.20;;
16705;SDS011;8469;60.136;15.180;2023-10-31T08:14:21;0.50;;;0.50;;
16705;SDS011;8469;60.136;15.180;2023-10-31T08:16:48;0.33;;;0.33;;
16705;SDS011;8469;60.136;15.180;2023-10-31T08:19:16;0.90;;;0.30;;
16705;SDS011;8469;60.136;15.180;2023-10-31T08:21:43;0.20;;;0.20;;
16705;SDS011;8469;60.136;15.180;2023-10-31T08:24:10;0.37;;;0.37;;
16705;SDS011;8469;60.136;15.180;2023-10-31T08:26:39;0.25;;;0.25;;
16705;SDS011;8469;60.136;15.180;2023-10-31T08:29:07;0.23;;;0.23;;
16705;SDS011;8469;60.136;15.180;2023-10-31T08:31:34;0.23;;;0.23;;
16705;SDS011;8469;60.136;15.180;2023-10-31T08:34:01;1.15;;;0.65;;
16705;SDS011;8469;60.136;15.180;2023-10-31T08:36:29;3.47;;;1.70;;
16705;SDS011;8469;60.136;15.180;2023-10-31T08:38:56;5.43;;;2.00;;
16705;SDS011;8469;60.136;15.180;2023-10-31T08:41:24;4.87;;;2.00;;
16705;SDS011;8469;60.136;15.180;2023-10-31T08:43:51;2.27;;;1.50;;
16705;SDS011;8469;60.136;15.180;2023-10-31T08:46:18;0.62;;;0.62;;
16705;SDS011;8469;60.136;15.180;2023-10-31T08:48:46;0.50;;;0.50;;
16705;SDS011;8469;60.136;15.180;2023-10-31T08:51:13;0.70;;;0.37;;
16705;SDS011;8469;60.136;15.180;2023-10-31T08:53:40;0.40;;;0.40;;
16705;SDS011;8469;60.136;15.180;2023-10-31T08:56:08;0.40;;;0.40;;
16705;SDS011;8469;60.136;15.180;2023-10-31T08:58:35;0.45;;;0.45;;
16705;SDS011;8469;60.136;15.180;2023-10-31T09:01:02;0.50;;;0.50;;
16705;SDS011;8469;60.136;15.180;2023-10-31T09:03:30;0.30;;;0.30;;
16705;SDS011;8469;60.136;15.180;2023-10-31T09:05:56;0.30;;;0.30;;
16705;SDS011;8469;60.136;15.180;2023-10-31T09:08:24;1.40;;;0.30;;
16705;SDS011;8469;60.136;15.180;2023-10-31T09:10:52;0.30;;;0.30;;
16705;SDS011;8469;60.136;15.180;2023-10-31T09:13:19;0.30;;;0.30;;
16705;SDS011;8469;60.136;15.180;2023-10-31T09:15:46;0.20;;;0.20;;
16705;SDS011;8469;60.136;15.180;2023-10-31T09:18:15;0.20;;;0.20;;
16705;SDS011;8469;60.136;15.180;2023-10-31T09:20:43;0.40;;;0.40;;
16705;SDS011;8469;60.136;15.180;2023-10-31T09:23:10;0.40;;;0.40;;
16705;SDS011;8469;60.136;15.180;2023-10-31T09:25:37;0.30;;;0.30;;
16705;SDS011;8469;60.136;15.180;2023-10-31T09:28:05;0.40;;;0.40;;
16705;SDS011;8469;60.136;15.180;2023-10-31T09:30:32;0.23;;;0.23;;
16705;SDS011;8469;60.136;15.180;2023-10-31T09:33:00;0.40;;;0.40;;
16705;SDS011;8469;60.136;15.180;2023-10-31T09:35:27;0.40;;;0.40;;
16705;SDS011;8469;60.136;15.180;2023-10-31T09:37:55;0.28;;;0.28;;
16705;SDS011;8469;60.136;15.180;2023-10-31T09:40:22;0.40;;;0.30;;
16705;SDS011;8469;60.136;15.180;2023-10-31T09:42:49;0.30;;;0.30;;
16705;SDS011;8469;60.136;15.180;2023-10-31T09:45:17;0.50;;;0.47;;
16705;SDS011;8469;60.136;15.180;2023-10-31T09:47:44;0.30;;;0.30;;
16705;SDS011;8469;60.136;15.180;2023-10-31T09:50:12;0.30;;;0.30;;
16705;SDS011;8469;60.136;15.180;2023-10-31T09:52:39;0.25;;;0.25;;
16705;SDS011;8469;60.136;15.180;2023-10-31T09:55:06;0.90;;;0.62;;
16705;SDS011;8469;60.136;15.180;2023-10-31T09:57:35;0.40;;;0.40;;
16705;SDS011;8469;60.136;15.180;2023-10-31T10:00:02;0.37;;;0.37;;
16705;SDS011;8469;60.136;15.180;2023-10-31T10:02:31;0.40;;;0.40;;
16705;SDS011;8469;60.136;15.180;2023-10-31T10:04:59;0.30;;;0.30;;
16705;SDS011;8469;60.136;15.180;2023-10-31T10:07:26;0.65;;;0.53;;
16705;SDS011;8469;60.136;15.180;2023-10-31T10:09:54;0.70;;;0.50;;
16705;SDS011;8469;60.136;15.180;2023-10-31T10:12:22;0.90;;;0.60;;
16705;SDS011;8469;60.136;15.180;2023-10-31T10:14:50;0.30;;;0.30;;
16705;SDS011;8469;60.136;15.180;2023-10-31T10:17:20;0.30;;;0.30;;
16705;SDS011;8469;60.136;15.180;2023-10-31T10:19:46;0.40;;;0.40;;
16705;SDS011;8469;60.136;15.180;2023-10-31T10:22:14;0.40;;;0.40;;
16705;SDS011;8469;60.136;15.180;2023-10-31T10:24:42;0.62;;;0.40;;
16705;SDS011;8469;60.136;15.180;2023-10-31T10:27:09;0.80;;;0.30;;
16705;SDS011;8469;60.136;15.180;2023-10-31T10:29:41;0.30;;;0.30;;
16705;SDS011;8469;60.136;15.180;2023-10-31T10:32:05;0.50;;;0.40;;
16705;SDS011;8469;60.136;15.180;2023-10-31T10:34:34;0.55;;;0.40;;
16705;SDS011;8469;60.136;15.180;2023-10-31T10:37:03;0.40;;;0.40;;
16705;SDS011;8469;60.136;15.180;2023-10-31T10:39:33;0.90;;;0.60;;
16705;SDS011;8469;60.136;15.180;2023-10-31T10:42:02;0.30;;;0.30;;
16705;SDS011;8469;60.136;15.180;2023-10-31T10:44:33;0.20;;;0.20;;
16705;SDS011;8469;60.136;15.180;2023-10-31T10:47:04;0.33;;;0.30;;
16705;SDS011;8469;60.136;15.180;2023-10-31T10:49:32;0.33;;;0.33;;
16705;SDS011;8469;60.136;15.180;2023-10-31T10:57:14;0.30;;;0.30;;
16705;SDS011;8469;60.136;15.180;2023-10-31T10:59:43;0.40;;;0.40;;
16705;SDS011;8469;60.136;15.180;2023-10-31T11:02:11;1.40;;;0.50;;
16705;SDS011;8469;60.136;15.180;2023-10-31T11:04:40;0.90;;;0.30;;
16705;SDS011;8469;60.136;15.180;2023-10-31T11:07:09;0.50;;;0.50;;
16705;SDS011;8469;60.136;15.180;2023-10-31T11:09:37;0.40;;;0.40;;
16705;SDS011;8469;60.136;15.180;2023-10-31T11:12:04;0.30;;;0.30;;
16705;SDS011;8469;60.136;15.180;2023-10-31T11:14:33;0.90;;;0.50;;
16705;SDS011;8469;60.136;15.180;2023-10-31T11:17:02;1.07;;;0.55;;
16705;SDS011;8469;60.136;15.180;2023-10-31T11:19:30;0.40;;;0.40;;
16705;SDS011;8469;60.136;15.180;2023-10-31T11:21:58;0.40;;;0.40;;
16705;SDS011;8469;60.136;15.180;2023-10-31T11:24:26;0.23;;;0.23;;
16705;SDS011;8469;60.136;15.180;2023-10-31T11:26:58;0.35;;;0.35;;
16705;SDS011;8469;60.136;15.180;2023-10-31T11:29:23;0.45;;;0.45;;
16705;SDS011;8469;60.136;15.180;2023-10-31T11:31:57;0.40;;;0.40;;
16705;SDS011;8469;60.136;15.180;2023-10-31T11:34:21;0.40;;;0.40;;
16705;SDS011;8469;60.136;15.180;2023-10-31T11:36:50;0.30;;;0.30;;
16705;SDS011;8469;60.136;15.180;2023-10-31T11:39:18;0.30;;;0.30;;
16705;SDS011;8469;60.136;15.180;2023-10-31T11:41:48;0.47;;;0.40;;
16705;SDS011;8469;60.136;15.180;2023-10-31T11:44:16;0.45;;;0.45;;
16705;SDS011;8469;60.136;15.180;2023-10-31T11:46:44;0.42;;;0.42;;
16705;SDS011;8469;60.136;15.180;2023-10-31T11:49:13;0.60;;;0.60;;
16705;SDS011;8469;60.136;15.180;2023-10-31T11:51:40;0.60;;;0.30;;
16705;SDS011;8469;60.136;15.180;2023-10-31T11:54:07;0.40;;;0.40;;
16705;SDS011;8469;60.136;15.180;2023-10-31T11:56:35;0.40;;;0.40;;
16705;SDS011;8469;60.136;15.180;2023-10-31T11:59:03;0.50;;;0.47;;
16705;SDS011;8469;60.136;15.180;2023-10-31T12:01:33;0.40;;;0.40;;
16705;SDS011;8469;60.136;15.180;2023-10-31T12:04:00;0.40;;;0.40;;
16705;SDS011;8469;60.136;15.180;2023-10-31T12:06:29;0.45;;;0.45;;
16705;SDS011;8469;60.136;15.180;2023-10-31T12:08:59;0.30;;;0.30;;
16705;SDS011;8469;60.136;15.180;2023-10-31T12:11:25;0.55;;;0.50;;
16705;SDS011;8469;60.136;15.180;2023-10-31T12:13:57;0.45;;;0.45;;
16705;SDS011;8469;60.136;15.180;2023-10-31T12:16:26;0.40;;;0.40;;
16705;SDS011;8469;60.136;15.180;2023-10-31T12:19:00;1.75;;;0.47;;
16705;SDS011;8469;60.136;15.180;2023-10-31T12:21:34;0.40;;;0.40;;
16705;SDS011;8469;60.136;15.180;2023-10-31T12:24:03;0.40;;;0.40;;
16705;SDS011;8469;60.136;15.180;2023-10-31T12:26:31;0.30;;;0.30;;
16705;SDS011;8469;60.136;15.180;2023-10-31T12:29:18;0.60;;;0.50;;
16705;SDS011;8469;60.136;15.180;2023-10-31T12:31:49;0.33;;;0.33;;
16705;SDS011;8469;60.136;15.180;2023-10-31T12:34:19;0.40;;;0.40;;
16705;SDS011;8469;60.136;15.180;2023-10-31T12:36:47;0.40;;;0.40;;
16705;SDS011;8469;60.136;15.180;2023-10-31T12:39:15;0.60;;;0.60;;
16705;SDS011;8469;60.136;15.180;2023-10-31T12:41:43;0.40;;;0.40;;
16705;SDS011;8469;60.136;15.180;2023-10-31T12:44:11;0.60;;;0.60;;
16705;SDS011;8469;60.136;15.180;2023-10-31T12:46:40;0.90;;;0.80;;
16705;SDS011;8469;60.136;15.180;2023-10-31T12:49:11;0.50;;;0.50;;
16705;SDS011;8469;60.136;15.180;2023-10-31T12:51:54;0.50;;;0.50;;
16705;SDS011;8469;60.136;15.180;2023-10-31T12:54:08;0.50;;;0.50;;
16705;SDS011;8469;60.136;15.180;2023-10-31T12:56:37;0.50;;;0.50;;
16705;SDS011;8469;60.136;15.180;2023-10-31T12:59:10;0.40;;;0.40;;
16705;SDS011;8469;60.136;15.180;2023-10-31T13:01:42;0.50;;;0.50;;
16705;SDS011;8469;60.136;15.180;2023-10-31T13:04:05;0.50;;;0.50;;
16705;SDS011;8469;60.136;15.180;2023-10-31T13:06:34;1.90;;;0.60;;
16705;SDS011;8469;60.136;15.180;2023-10-31T13:09:01;0.63;;;0.50;;
16705;SDS011;8469;60.136;15.180;2023-10-31T13:11:30;0.30;;;0.30;;
16705;SDS011;8469;60.136;15.180;2023-10-31T13:13:58;0.50;;;0.42;;
16705;SDS011;8469;60.136;15.180;2023-10-31T13:16:25;0.60;;;0.60;;
16705;SDS011;8469;60.136;15.180;2023-10-31T13:18:54;0.40;;;0.40;;
16705;SDS011;8469;60.136;15.180;2023-10-31T13:21:21;0.70;;;0.50;;
16705;SDS011;8469;60.136;15.180;2023-10-31T13:23:48;0.37;;;0.37;;
16705;SDS011;8469;60.136;15.180;2023-10-31T13:26:16;0.55;;;0.55;;
16705;SDS011;8469;60.136;15.180;2023-10-31T13:28:43;0.60;;;0.60;;
16705;SDS011;8469;60.136;15.180;2023-10-31T13:31:11;0.50;;;0.50;;
16705;SDS011;8469;60.136;15.180;2023-10-31T13:33:40;0.40;;;0.40;;
16705;SDS011;8469;60.136;15.180;2023-10-31T13:36:07;0.42;;;0.42;;
16705;SDS011;8469;60.136;15.180;2023-10-31T13:38:36;0.50;;;0.50;;
16705;SDS011;8469;60.136;15.180;2023-10-31T13:41:04;0.37;;;0.37;;
16705;SDS011;8469;60.136;15.180;2023-10-31T13:43:35;2.62;;;0.40;;
16705;SDS011;8469;60.136;15.180;2023-10-31T13:46:03;0.30;;;0.30;;
16705;SDS011;8469;60.136;15.180;2023-10-31T13:48:32;0.45;;;0.45;;
16705;SDS011;8469;60.136;15.180;2023-10-31T13:51:00;0.30;;;0.30;;
16705;SDS011;8469;60.136;15.180;2023-10-31T13:53:27;0.40;;;0.40;;
16705;SDS011;8469;60.136;15.180;2023-10-31T13:55:55;0.50;;;0.50;;
16705;SDS011;8469;60.136;15.180;2023-10-31T13:58:22;0.40;;;0.40;;
16705;SDS011;8469;60.136;15.180;2023-10-31T14:00:50;0.20;;;0.20;;
16705;SDS011;8469;60.136;15.180;2023-10-31T14:03:17;0.35;;;0.35;;
16705;SDS011;8469;60.136;15.180;2023-10-31T14:05:45;0.40;;;0.40;;
16705;SDS011;8469;60.136;15.180;2023-10-31T14:08:12;0.40;;;0.40;;
16705;SDS011;8469;60.136;15.180;2023-10-31T14:10:39;0.60;;;0.30;;
16705;SDS011;8469;60.136;15.180;2023-10-31T14:13:08;0.50;;;0.50;;
16705;SDS011;8469;60.136;15.180;2023-10-31T14:15:36;0.90;;;0.50;;
16705;SDS011;8469;60.136;15.180;2023-10-31T14:18:04;0.40;;;0.40;;
16705;SDS011;8469;60.136;15.180;2023-10-31T14:20:31;2.00;;;0.55;;
16705;SDS011;8469;60.136;15.180;2023-10-31T14:22:58;0.30;;;0.30;;
16705;SDS011;8469;60.136;15.180;2023-10-31T14:25:26;1.30;;;0.40;;
16705;SDS011;8469;60.136;15.180;2023-10-31T14:27:52;0.42;;;0.42;;
16705;SDS011;8469;60.136;15.180;2023-10-31T14:30:20;0.68;;;0.50;;
16705;SDS011;8469;60.136;15.180;2023-10-31T14:32:48;0.42;;;0.42;;
16705;SDS011;8469;60.136;15.180;2023-10-31T14:35:15;0.30;;;0.30;;
16705;SDS011;8469;60.136;15.180;2023-10-31T14:37:42;0.50;;;0.50;;
16705;SDS011;8469;60.136;15.180;2023-10-31T14:40:10;0.40;;;0.40;;
16705;SDS011;8469;60.136;15.180;2023-10-31T14:42:37;0.40;;;0.40;;
16705;SDS011;8469;60.136;15.180;2023-10-31T14:45:05;0.30;;;0.30;;
16705;SDS011;8469;60.136;15.180;2023-10-31T14:47:33;0.50;;;0.50;;
16705;SDS011;8469;60.136;15.180;2023-10-31T14:50:00;0.33;;;0.33;;
16705;SDS011;8469;60.136;15.180;2023-10-31T14:52:27;0.45;;;0.40;;
16705;SDS011;8469;60.136;15.180;2023-10-31T14:54:55;0.43;;;0.43;;
16705;SDS011;8469;60.136;15.180;2023-10-31T14:57:22;0.47;;;0.47;;